• Join FlightAware (Why Join?)
  • Login
  • US Flag 
07:24AM EDT


 

Airport Tracker/Info


-or-


 

Live Flight TrackerFlight Track Log ✈ LYM1180 ✈ 28-Feb-2012 ✈ KDEN - KGJT

Flight Track Log - Related Links

Times and Time Zones

All times are in EST time to prevent confusion due to time zone crossing. See the LYM1180 flight status page for this flight to view local times or setup timezone preferences in your user account.

Time Position Orientation Groundspeed Altitude Reporting Facility
EST Latitude Longitude Course Direction KTS MPH feet Rate Location/Type
08:36AM 39.1167 -108.5167 75° East  Level FlightAware Approximate
08:38AM 39.8167 -104.8167 270° West 190 219 8,900  Level Denver TRACON
08:38AM 39.8167 -104.8667 252° West 184 212 10,300 1,320 Climbing Denver TRACON
08:39AM 39.8000 -104.9333 270° West 178 205 11,500 960 Climbing Denver TRACON
08:40AM 39.8000 -105.0000 249° West 183 211 12,300 840 Climbing Denver TRACON
08:41AM 39.7872 -105.0439 259° West 189 217 12,900 1,140 Climbing Denver Center
08:42AM 39.7775 -105.1114 257° West 183 211 14,200 1,080 Climbing Denver Center
08:43AM 39.7658 -105.1767 259° West 188 216 15,100 900 Climbing Denver Center
08:44AM 39.7561 -105.2417 258° West 193 222 16,000 900 Climbing Denver Center
08:45AM 39.7442 -105.3119 262° West 193 222 16,900 720 Climbing Denver Center
08:46AM 39.7367 -105.3822 259° West 200 230 17,500 660 Climbing Denver Center
08:47AM 39.7267 -105.4500 262° West 205 236 18,300 780 Climbing Denver Center
08:48AM 39.7192 -105.5231 266° West 195 224 19,100 600 Climbing Denver Center
08:49AM 39.7156 -105.5958 257° West 195 224 19,600 420 Climbing Denver Center
08:50AM 39.7033 -105.6664 257° West 202 232 20,000 180 Climbing Denver Center
08:51AM 39.6894 -105.7447 256° West 208 239 20,000  Level Denver Center
08:52AM 39.6772 -105.8069 256° West 213 245 20,000  Level Denver Center
08:53AM 39.6611 -105.8933 255° West 220 253 20,000  Level Denver Center
08:54AM 39.6428 -105.9797 251° West 232 267 20,000  Level Denver Center
08:55AM 39.6200 -106.0661 260° West 249 287 20,100  Climbing Denver Center
08:56AM 39.6078 -106.1581 255° West 249 287 20,000 -60 Descending Denver Center
08:57AM 39.5892 -106.2469 254° West 260 299 20,000  Level Denver Center
08:58AM 39.5686 -106.3386 253° West 260 299 20,000  Level Denver Center
08:59AM 39.5478 -106.4275 255° West 260 299 20,000  Level Denver Center
09:00AM 39.5289 -106.5189 252° West 260 299 20,000  Level Denver Center
09:01AM 39.5039 -106.6211 255° West 268 308 20,000  Level Denver Center
09:02AM 39.4850 -106.7125 251° West 268 308 20,000  Level Denver Center
09:03AM 39.4639 -106.7933 254° West 263 303 20,000  Level Denver Center
09:04AM 39.4428 -106.8872 256° West 290 334 20,000  Level Denver Center
09:05AM 39.4236 -106.9867 256° West 281 323 20,000  Level Denver Center
09:06AM 39.4064 -107.0778 258° West 270 311 20,000  Level Denver Center
09:07AM 39.3914 -107.1717 256° West 270 311 20,100  Climbing Denver Center
09:08AM 39.3761 -107.2522 257° West 258 297 20,000 -60 Descending Denver Center
09:09AM 39.3589 -107.3486 255° West 258 297 20,000  Level Denver Center
09:10AM 39.3392 -107.4425 262° West 266 306 20,000  Level Denver Center
09:11AM 39.3303 -107.5228 255° West 266 306 20,000  Level Denver Center
09:12AM 39.3128 -107.6083 253° West 256 295 20,000 -480 Level Denver Center
09:13AM 39.2931 -107.6939 256° West 235 270 19,100 -1,260 Descending Denver Center
09:14AM 39.2775 -107.7767 256° West 235 270 17,500 -1,380 Descending Denver Center
09:16AM 39.2464 -107.9317 253° West 240 276 15,000 -840 Descending Denver Center
09:17AM 39.2244 -108.0225 253° West 240 276 15,000 -300 Level Denver Center
09:18AM 39.2044 -108.1078 251° West 245 282 14,400 -900 Descending Denver Center
09:19AM 39.1847 -108.1822 254° West 245 282 13,200 -960 Descending Denver Center
09:20AM 39.1667 -108.2647 255° West 240 276 12,500 -900 Descending Denver Center
09:21AM 39.1486 -108.3528 278° West 240 276 11,400 -1,020 Descending Denver Center
09:22AM 39.1558 -108.4225 306° West 214 246 10,500 -900 Descending Denver Center
09:23AM 39.1881 -108.4797 298° West 200 230 9,600 -720 Descending Denver Center
09:24AM 39.2142 -108.5419 295° West 206 237 9,100 -300 Descending Denver Center
09:25AM 39.2439 -108.6233 297° West 218 251 9,000 -300 Descending Denver Center
09:26AM 39.2717 -108.6939 222° Southwest 218 251 8,500 -720 Descending Denver Center
09:27AM 39.2397 -108.7306 127° Southeast 136 157 7,600 -840 Descending Denver Center
09:29AM 39.1833 -108.6333 131° Southeast 179 206 6,400 -720 Descending Denver TRACON
09:30AM 39.1500 -108.5833 131° Southeast 170 196 5,800 -600 Descending Denver TRACON